createdAt,value
2023-02-18T00:02:22.431Z,9.63
2023-02-18T00:04:48.891Z,9.65
2023-02-18T00:07:15.332Z,9.68
2023-02-18T00:09:41.768Z,9.68
2023-02-18T00:12:08.173Z,9.68
2023-02-18T00:14:34.640Z,9.70
2023-02-18T00:17:01.025Z,9.70
2023-02-18T00:19:27.534Z,9.71
2023-02-18T00:21:54.015Z,9.68
2023-02-18T00:24:20.523Z,9.66
2023-02-18T00:26:51.922Z,9.65
2023-02-18T00:29:19.873Z,9.64
2023-02-18T00:31:46.448Z,9.60
2023-02-18T00:34:13.890Z,9.61
2023-02-18T00:36:41.362Z,9.61
2023-02-18T00:39:10.038Z,9.59
2023-02-18T00:41:37.250Z,9.58
2023-02-18T00:44:04.211Z,9.58
2023-02-18T00:46:30.782Z,9.57
2023-02-18T00:48:57.414Z,9.56
2023-02-18T00:51:25.398Z,9.55
2023-02-18T00:53:52.866Z,9.52
2023-02-18T00:56:19.724Z,9.49
2023-02-18T00:58:46.230Z,9.47
2023-02-18T01:01:12.856Z,9.44
2023-02-18T01:03:41.365Z,9.46
2023-02-18T01:06:08.883Z,9.44
2023-02-18T01:08:37.178Z,9.42
2023-02-18T01:11:04.506Z,9.38
2023-02-18T01:13:31.620Z,9.35
2023-02-18T01:15:58.320Z,9.32
2023-02-18T01:18:26.161Z,9.29
2023-02-18T01:20:52.769Z,9.28
2023-02-18T01:23:19.671Z,9.26
2023-02-18T01:25:46.432Z,9.21
2023-02-18T01:28:14.499Z,9.19
2023-02-18T01:30:41.827Z,9.15
2023-02-18T01:33:09.200Z,9.11
2023-02-18T01:35:38.900Z,9.10
2023-02-18T01:38:05.344Z,9.05
2023-02-18T01:40:31.939Z,9.03
2023-02-18T01:42:58.385Z,9.01
2023-02-18T01:45:50.924Z,8.97
2023-02-18T01:48:24.807Z,8.98
2023-02-18T01:50:57.120Z,8.98
2023-02-18T01:53:33.320Z,9.01
2023-02-18T01:56:03.794Z,9.00
2023-02-18T01:58:30.439Z,8.98
2023-02-18T02:00:57.031Z,8.97
2023-02-18T02:03:23.594Z,8.97
2023-02-18T02:05:50.050Z,8.98
2023-02-18T02:08:16.837Z,8.98
2023-02-18T02:11:18.172Z,8.97
2023-02-18T02:14:11.094Z,8.98
2023-02-18T02:16:41.524Z,8.99
2023-02-18T02:19:26.533Z,9.00
2023-02-18T02:22:31.213Z,9.00
2023-02-18T02:25:03.801Z,8.98
2023-02-18T02:28:13.309Z,8.97
2023-02-18T02:31:19.047Z,8.96
2023-02-18T02:34:04.013Z,8.96
2023-02-18T02:36:54.805Z,8.96
2023-02-18T02:39:24.220Z,8.98
2023-02-18T02:42:11.068Z,9.00
2023-02-18T02:45:00.553Z,9.04
2023-02-18T02:47:42.140Z,9.06
2023-02-18T02:50:20.401Z,9.06
2023-02-18T02:52:52.819Z,9.06
2023-02-18T02:55:19.357Z,9.07
2023-02-18T02:57:51.713Z,9.07
2023-02-18T03:00:23.997Z,9.09
2023-02-18T03:03:15.022Z,9.08
2023-02-18T03:05:58.826Z,9.09
2023-02-18T03:08:37.533Z,9.09
2023-02-18T03:11:15.881Z,9.11
2023-02-18T03:14:06.749Z,9.13
2023-02-18T03:16:48.473Z,9.16
2023-02-18T03:19:29.585Z,9.18
2023-02-18T03:22:03.799Z,9.19
2023-02-18T03:24:35.169Z,9.22
2023-02-18T03:27:08.407Z,9.24
2023-02-18T03:29:35.682Z,9.26
2023-02-18T03:32:07.652Z,9.28
2023-02-18T03:34:41.431Z,9.29
2023-02-18T03:37:10.397Z,9.31
2023-02-18T03:39:39.806Z,9.32
2023-02-18T03:42:07.415Z,9.31
2023-02-18T03:44:33.874Z,9.33
2023-02-18T03:47:00.328Z,9.35
2023-02-18T03:49:26.743Z,9.34
2023-02-18T03:51:53.197Z,9.35
2023-02-18T03:54:20.344Z,9.36
2023-02-18T03:56:46.839Z,9.36
2023-02-18T03:59:13.670Z,9.37
2023-02-18T04:01:40.605Z,9.37
2023-02-18T04:04:07.233Z,9.38
2023-02-18T04:06:33.913Z,9.39
2023-02-18T04:09:00.483Z,9.40
2023-02-18T04:11:26.910Z,9.41
2023-02-18T04:13:53.410Z,9.41
2023-02-18T04:16:19.931Z,9.43
2023-02-18T04:18:46.370Z,9.43
2023-02-18T04:21:12.796Z,9.43
2023-02-18T04:23:39.205Z,9.45
2023-02-18T04:26:05.766Z,9.47
2023-02-18T04:28:32.217Z,9.47
2023-02-18T04:30:58.763Z,9.48
2023-02-18T04:33:25.429Z,9.50
2023-02-18T04:35:51.930Z,9.52
2023-02-18T04:38:18.397Z,9.52
2023-02-18T04:40:44.958Z,9.53
2023-02-18T04:43:11.484Z,9.53
2023-02-18T04:45:37.902Z,9.54
2023-02-18T04:48:04.649Z,9.52
2023-02-18T04:50:31.063Z,9.53
2023-02-18T04:52:57.485Z,9.53
2023-02-18T04:55:23.930Z,9.53
2023-02-18T04:57:50.330Z,9.51
2023-02-18T05:00:19.245Z,9.51
2023-02-18T05:02:46.281Z,9.51
2023-02-18T05:05:13.843Z,9.50
2023-02-18T05:07:42.372Z,9.49
2023-02-18T05:10:11.142Z,9.48
2023-02-18T05:12:37.716Z,9.46
2023-02-18T05:15:04.694Z,9.45
2023-02-18T05:17:31.146Z,9.45
2023-02-18T05:19:57.584Z,9.44
2023-02-18T05:22:24.122Z,9.44
2023-02-18T05:24:50.598Z,9.42
2023-02-18T05:27:17.135Z,9.42
2023-02-18T05:29:43.679Z,9.43
2023-02-18T05:32:10.367Z,9.42
2023-02-18T05:34:36.914Z,9.42
2023-02-18T05:37:03.570Z,9.42
2023-02-18T05:39:30.083Z,9.41
2023-02-18T05:41:56.492Z,9.42
2023-02-18T05:44:32.407Z,9.42
2023-02-18T05:47:05.427Z,9.42
2023-02-18T05:49:33.124Z,9.43
2023-02-18T05:52:00.222Z,9.43
2023-02-18T05:54:27.547Z,9.44
2023-02-18T05:56:54.765Z,9.46
2023-02-18T05:59:21.584Z,9.48
2023-02-18T06:01:48.320Z,9.49
2023-02-18T06:04:15.518Z,9.50
2023-02-18T06:06:42.274Z,9.51
2023-02-18T06:09:09.712Z,9.50
2023-02-18T06:11:36.534Z,9.50
2023-02-18T06:14:03.294Z,9.51
2023-02-18T06:16:30.153Z,9.52
2023-02-18T06:18:56.871Z,9.52
2023-02-18T06:21:23.364Z,9.53
2023-02-18T06:23:49.829Z,9.54
2023-02-18T06:26:16.400Z,9.55
2023-02-18T06:28:42.903Z,9.55
2023-02-18T06:31:09.454Z,9.56
2023-02-18T06:33:36.205Z,9.57
2023-02-18T06:36:09.349Z,9.57
2023-02-18T06:38:36.330Z,9.58
2023-02-18T06:41:03.145Z,9.58
2023-02-18T06:43:29.703Z,9.59
2023-02-18T06:45:56.660Z,9.58
2023-02-18T06:48:23.508Z,9.58
2023-02-18T06:50:50.064Z,9.58
2023-02-18T06:53:17.433Z,9.59
2023-02-18T06:55:44.728Z,9.57
2023-02-18T06:58:12.775Z,9.56
2023-02-18T07:00:39.754Z,9.55
2023-02-18T07:03:07.138Z,9.52
2023-02-18T07:05:33.799Z,9.50
2023-02-18T07:08:00.391Z,9.49
2023-02-18T07:10:26.831Z,9.47
2023-02-18T07:12:53.608Z,9.45
2023-02-18T07:15:24.214Z,9.45
2023-02-18T07:17:51.757Z,9.45
2023-02-18T07:20:19.608Z,9.45
2023-02-18T07:22:46.263Z,9.47
2023-02-18T07:25:13.121Z,9.47
2023-02-18T07:27:39.969Z,9.47
2023-02-18T07:30:07.293Z,9.47
2023-02-18T07:32:34.085Z,9.47
2023-02-18T07:35:00.569Z,9.46
2023-02-18T07:37:27.052Z,9.45
2023-02-18T07:39:53.508Z,9.44
2023-02-18T07:42:19.936Z,9.44
2023-02-18T07:44:46.453Z,9.44
2023-02-18T07:47:15.082Z,9.45
2023-02-18T07:49:41.519Z,9.45
2023-02-18T07:52:08.028Z,9.47
2023-02-18T07:54:35.339Z,9.47
2023-02-18T07:57:01.789Z,9.47
2023-02-18T07:59:28.266Z,9.47
2023-02-18T08:01:54.769Z,9.45
2023-02-18T08:04:21.263Z,9.46
2023-02-18T08:06:49.748Z,9.45
2023-02-18T08:09:17.308Z,9.45
2023-02-18T08:11:44.021Z,9.45
2023-02-18T08:14:11.297Z,9.44
2023-02-18T08:16:37.978Z,9.43
2023-02-18T08:19:04.515Z,9.41
2023-02-18T08:21:31.725Z,9.41
2023-02-18T08:23:59.446Z,9.40
2023-02-18T08:26:26.471Z,9.38
2023-02-18T08:28:52.966Z,9.38
2023-02-18T08:31:25.484Z,9.38
2023-02-18T08:33:54.195Z,9.36
2023-02-18T08:36:21.243Z,9.37
2023-02-18T08:38:48.041Z,9.35
2023-02-18T08:41:15.737Z,9.34
2023-02-18T08:43:43.321Z,9.33
2023-02-18T08:46:15.915Z,9.32
2023-02-18T08:48:44.168Z,9.30
2023-02-18T08:51:17.302Z,9.28
2023-02-18T08:53:45.055Z,9.25
2023-02-18T08:56:11.645Z,9.24
2023-02-18T08:58:38.209Z,9.22
2023-02-18T09:01:07.164Z,9.20
2023-02-18T09:03:34.792Z,9.19
2023-02-18T09:06:02.030Z,9.18
2023-02-18T09:08:29.006Z,9.17
2023-02-18T09:11:01.150Z,9.15
2023-02-18T09:13:28.238Z,9.15
2023-02-18T09:16:24.464Z,9.17
2023-02-18T09:18:52.392Z,9.18
2023-02-18T09:21:20.787Z,9.19
2023-02-18T09:23:47.301Z,9.20
2023-02-18T09:26:16.138Z,9.21
2023-02-18T09:28:43.064Z,9.21
2023-02-18T09:31:19.149Z,9.22
2023-02-18T09:33:49.152Z,9.21
2023-02-18T09:36:15.774Z,9.23
2023-02-18T09:38:42.401Z,9.26
2023-02-18T09:41:30.280Z,9.28
2023-02-18T09:44:21.811Z,9.29
2023-02-18T09:46:57.057Z,9.30
2023-02-18T09:49:26.293Z,9.32
2023-02-18T09:51:55.663Z,9.35
2023-02-18T09:54:22.396Z,9.36
2023-02-18T09:56:49.942Z,9.37
2023-02-18T09:59:19.477Z,9.40
2023-02-18T10:01:49.246Z,9.42
2023-02-18T10:04:21.188Z,9.42
2023-02-18T10:06:49.342Z,9.44
2023-02-18T10:09:28.418Z,9.49
2023-02-18T10:12:08.080Z,9.51
2023-02-18T10:14:36.365Z,9.54
2023-02-18T10:17:03.989Z,9.61
2023-02-18T10:19:35.365Z,9.71
2023-02-18T10:22:04.786Z,9.77
2023-02-18T10:24:36.038Z,9.79
2023-02-18T10:27:06.137Z,9.81
2023-02-18T10:29:32.751Z,9.84
2023-02-18T10:32:17.716Z,9.87
2023-02-18T10:35:14.993Z,9.91
2023-02-18T10:38:04.644Z,9.98
2023-02-18T10:40:37.087Z,10.05
2023-02-18T10:43:31.098Z,10.10
2023-02-18T10:46:23.701Z,10.19
2023-02-18T10:49:05.598Z,10.29
2023-02-18T10:51:35.220Z,10.33
2023-02-18T10:54:01.862Z,10.40
2023-02-18T10:56:49.766Z,10.41
2023-02-18T10:59:21.164Z,10.42
2023-02-18T11:01:56.306Z,10.44
2023-02-18T11:04:27.136Z,10.50
2023-02-18T11:06:54.812Z,10.52
2023-02-18T11:09:30.148Z,10.54
2023-02-18T11:12:16.875Z,10.62
2023-02-18T11:14:47.130Z,10.77
2023-02-18T11:17:30.239Z,10.82
2023-02-18T11:20:02.794Z,10.87
2023-02-18T11:22:35.050Z,10.90
2023-02-18T11:25:18.445Z,10.90
2023-02-18T11:27:50.860Z,10.89
2023-02-18T11:30:22.682Z,10.88
2023-02-18T11:32:59.766Z,10.84
2023-02-18T11:35:30.086Z,10.80
2023-02-18T11:37:58.524Z,10.78
2023-02-18T11:40:30.018Z,10.76
2023-02-18T11:43:05.821Z,10.70
2023-02-18T11:45:34.451Z,10.65
2023-02-18T11:48:06.700Z,10.61
2023-02-18T11:50:34.063Z,10.61
2023-02-18T11:53:00.640Z,10.63
2023-02-18T11:55:30.659Z,10.66
2023-02-18T11:57:59.714Z,10.67
2023-02-18T12:00:37.821Z,10.66
2023-02-18T12:03:15.190Z,10.68
2023-02-18T12:05:42.946Z,10.70
2023-02-18T12:08:19.282Z,10.74
2023-02-18T12:10:59.276Z,10.70
2023-02-18T12:13:37.041Z,10.69
2023-02-18T12:16:09.622Z,10.68
2023-02-18T12:19:05.307Z,10.67
2023-02-18T12:21:45.680Z,10.67
2023-02-18T12:24:41.116Z,10.69
2023-02-18T12:27:28.823Z,10.73
2023-02-18T12:30:12.736Z,10.77
2023-02-18T12:32:56.784Z,10.79
2023-02-18T12:35:37.759Z,10.84
2023-02-18T12:38:26.081Z,10.89
2023-02-18T12:41:04.580Z,10.95
2023-02-18T12:43:45.002Z,11.01
2023-02-18T12:46:20.563Z,11.03
2023-02-18T12:49:04.715Z,11.07
2023-02-18T12:51:52.793Z,11.14
2023-02-18T12:54:38.448Z,11.18
2023-02-18T12:57:27.117Z,11.24
2023-02-18T13:00:23.063Z,11.32
2023-02-18T13:03:27.519Z,11.38
2023-02-18T13:06:18.300Z,11.39
2023-02-18T13:09:12.666Z,11.39
2023-02-18T13:11:58.020Z,11.38
2023-02-18T13:14:29.624Z,11.36
2023-02-18T13:16:59.474Z,11.32
2023-02-18T13:19:34.702Z,11.29
2023-02-18T13:22:05.609Z,11.26
2023-02-18T13:24:37.227Z,11.25
2023-02-18T13:27:41.957Z,11.24
2023-02-18T13:30:34.256Z,11.25
2023-02-18T13:33:08.627Z,11.27
2023-02-18T13:35:43.045Z,11.30
2023-02-18T13:38:20.698Z,11.32
2023-02-18T13:40:47.363Z,11.35
2023-02-18T13:43:32.245Z,11.38
2023-02-18T13:46:11.120Z,11.40
2023-02-18T13:48:52.649Z,11.37
2023-02-18T13:51:30.386Z,11.37
2023-02-18T13:54:01.194Z,11.37
2023-02-18T13:56:29.676Z,11.38
2023-02-18T13:59:02.757Z,11.40
2023-02-18T14:01:45.804Z,11.43
2023-02-18T14:04:49.486Z,11.48
2023-02-18T14:07:22.045Z,11.51
2023-02-18T14:09:48.621Z,11.58
2023-02-18T14:12:26.125Z,11.64
2023-02-18T14:14:53.515Z,11.66
2023-02-18T14:17:19.848Z,11.68
2023-02-18T14:20:01.379Z,11.72
2023-02-18T14:22:45.411Z,11.76
2023-02-18T14:25:11.750Z,11.78
2023-02-18T14:27:40.577Z,11.82
2023-02-18T14:30:36.115Z,11.82
2023-02-18T14:33:02.854Z,11.87
2023-02-18T14:36:17.686Z,11.91
2023-02-18T14:39:21.998Z,11.95
2023-02-18T14:42:01.824Z,11.96
2023-02-18T14:44:37.346Z,11.97
2023-02-18T14:47:09.550Z,11.98
2023-02-18T14:49:49.784Z,11.93
2023-02-18T14:52:39.280Z,11.91
2023-02-18T14:55:08.384Z,11.88
2023-02-18T14:57:46.957Z,11.85
2023-02-18T15:00:32.356Z,11.84
2023-02-18T15:03:01.105Z,11.83
2023-02-18T15:05:30.833Z,11.83
2023-02-18T15:08:03.572Z,11.81
2023-02-18T15:10:41.208Z,11.80
2023-02-18T15:13:14.643Z,11.79
2023-02-18T15:15:43.373Z,11.77
2023-02-18T15:18:31.706Z,11.75
2023-02-18T15:21:01.248Z,11.73
2023-02-18T15:23:29.088Z,11.74
2023-02-18T15:25:55.659Z,11.73
2023-02-18T15:28:31.106Z,11.73
2023-02-18T15:31:03.323Z,11.73
2023-02-18T15:33:30.225Z,11.73
2023-02-18T15:36:04.958Z,11.72
2023-02-18T15:38:32.450Z,11.72
2023-02-18T15:40:59.799Z,11.71
2023-02-18T15:43:30.057Z,11.69
2023-02-18T15:45:58.786Z,11.68
2023-02-18T15:48:28.738Z,11.69
2023-02-18T15:51:02.751Z,11.67
2023-02-18T15:53:39.815Z,11.66
2023-02-18T15:56:10.813Z,11.66
2023-02-18T15:58:37.376Z,11.63
2023-02-18T16:01:07.003Z,11.59
2023-02-18T16:03:39.396Z,11.55
2023-02-18T16:06:26.024Z,11.52
2023-02-18T16:09:17.055Z,11.48
2023-02-18T16:11:47.364Z,11.45
2023-02-18T16:14:33.468Z,11.40
2023-02-18T16:17:16.550Z,11.36
2023-02-18T16:20:01.648Z,11.32
2023-02-18T16:22:38.876Z,11.28
2023-02-18T16:25:23.653Z,11.28
2023-02-18T16:27:57.588Z,11.26
2023-02-18T16:30:26.692Z,11.24
2023-02-18T16:32:54.824Z,11.22
2023-02-18T16:35:22.920Z,11.19
2023-02-18T16:37:52.811Z,11.16
2023-02-18T16:40:32.952Z,11.14
2023-02-18T16:43:06.293Z,11.12
2023-02-18T16:45:37.449Z,11.09
2023-02-18T16:48:05.174Z,11.07
2023-02-18T16:50:33.534Z,11.04
2023-02-18T16:53:00.761Z,11.04
2023-02-18T16:55:30.054Z,11.03
2023-02-18T16:57:57.161Z,11.01
2023-02-18T17:00:24.186Z,10.99
2023-02-18T17:02:55.000Z,10.99
2023-02-18T17:05:26.842Z,10.99
2023-02-18T17:08:19.271Z,10.96
2023-02-18T17:10:51.163Z,10.95
2023-02-18T17:13:20.858Z,10.94
2023-02-18T17:15:50.114Z,10.91
2023-02-18T17:18:17.197Z,10.90
2023-02-18T17:20:44.103Z,10.88
2023-02-18T17:23:15.180Z,10.84
2023-02-18T17:25:42.765Z,10.81
2023-02-18T17:28:09.280Z,10.81
2023-02-18T17:30:39.337Z,10.78
2023-02-18T17:33:06.752Z,10.77
2023-02-18T17:35:33.375Z,10.77
2023-02-18T17:38:00.045Z,10.77
2023-02-18T17:40:28.793Z,10.74
2023-02-18T17:42:56.450Z,10.70
2023-02-18T17:45:29.291Z,10.67
2023-02-18T17:47:57.279Z,10.67
2023-02-18T17:50:24.736Z,10.66
2023-02-18T17:52:51.460Z,10.65
2023-02-18T17:55:30.521Z,10.64
2023-02-18T17:57:57.912Z,10.61
2023-02-18T18:00:30.920Z,10.61
2023-02-18T18:02:57.653Z,10.60
2023-02-18T18:05:32.089Z,10.56
2023-02-18T18:07:59.189Z,10.57
2023-02-18T18:10:30.952Z,10.56
2023-02-18T18:13:07.666Z,10.54
2023-02-18T18:15:38.266Z,10.51
2023-02-18T18:18:05.775Z,10.48
2023-02-18T18:20:33.744Z,10.45
2023-02-18T18:23:02.484Z,10.41
2023-02-18T18:25:41.284Z,10.40
2023-02-18T18:28:08.775Z,10.40
2023-02-18T18:30:38.440Z,10.36
2023-02-18T18:33:16.660Z,10.35
2023-02-18T18:35:46.019Z,10.34
2023-02-18T18:38:13.848Z,10.31
2023-02-18T18:40:40.489Z,10.25
2023-02-18T18:43:07.001Z,10.22
2023-02-18T18:45:38.984Z,10.20
2023-02-18T18:48:06.571Z,10.20
2023-02-18T18:50:39.305Z,10.18
2023-02-18T18:53:07.004Z,10.18
2023-02-18T18:55:38.614Z,10.18
2023-02-18T18:58:05.424Z,10.15
2023-02-18T19:00:37.766Z,10.15
2023-02-18T19:03:05.629Z,10.15
2023-02-18T19:05:45.582Z,10.14
2023-02-18T19:08:13.282Z,10.12
2023-02-18T19:10:42.300Z,10.11
2023-02-18T19:13:14.315Z,10.11
2023-02-18T19:15:41.795Z,10.09
2023-02-18T19:18:12.981Z,10.09
2023-02-18T19:20:40.528Z,10.08
2023-02-18T19:23:08.241Z,10.05
2023-02-18T19:25:36.089Z,10.05
2023-02-18T19:28:04.104Z,10.05
2023-02-18T19:30:34.419Z,10.05
2023-02-18T19:33:02.792Z,10.03
2023-02-18T19:35:30.555Z,10.03
2023-02-18T19:37:57.211Z,10.05
2023-02-18T19:40:26.767Z,10.03
2023-02-18T19:42:53.869Z,10.03
2023-02-18T19:45:21.604Z,10.03
2023-02-18T19:47:53.639Z,10.02
2023-02-18T19:50:20.288Z,9.99
2023-02-18T19:52:46.995Z,10.01
2023-02-18T19:55:13.679Z,10.01
2023-02-18T19:57:40.258Z,10.01
2023-02-18T20:00:09.171Z,10.02
2023-02-18T20:02:35.653Z,9.99
2023-02-18T20:05:02.560Z,9.98
2023-02-18T20:07:30.207Z,9.99
2023-02-18T20:09:57.048Z,9.98
2023-02-18T20:12:23.757Z,9.99
2023-02-18T20:14:51.069Z,9.99
2023-02-18T20:17:18.099Z,9.96
2023-02-18T20:19:44.598Z,9.93
2023-02-18T20:22:11.062Z,9.93
2023-02-18T20:24:39.996Z,9.92
2023-02-18T20:27:07.480Z,9.89
2023-02-18T20:29:33.934Z,9.89
2023-02-18T20:32:01.105Z,9.87
2023-02-18T20:34:28.076Z,9.86
2023-02-18T20:36:54.575Z,9.86
2023-02-18T20:39:22.573Z,9.86
2023-02-18T20:41:50.222Z,9.86
2023-02-18T20:44:18.676Z,9.85
2023-02-18T20:46:45.504Z,9.84
2023-02-18T20:49:14.826Z,9.83
2023-02-18T20:51:41.705Z,9.83
2023-02-18T20:54:11.397Z,9.83
2023-02-18T20:56:38.727Z,9.82
2023-02-18T20:59:06.129Z,9.81
2023-02-18T21:01:32.815Z,9.82
2023-02-18T21:03:59.382Z,9.81
2023-02-18T21:06:25.931Z,9.82
2023-02-18T21:08:53.806Z,9.81
2023-02-18T21:11:26.757Z,9.82
2023-02-18T21:13:54.893Z,9.79
2023-02-18T21:16:23.427Z,9.75
2023-02-18T21:18:50.793Z,9.75
2023-02-18T21:21:20.104Z,9.76
2023-02-18T21:23:47.459Z,9.76
2023-02-18T21:26:19.020Z,9.78
2023-02-18T21:28:50.975Z,9.76
2023-02-18T21:31:23.259Z,9.75
2023-02-18T21:33:50.447Z,9.76
2023-02-18T21:36:18.039Z,9.77
2023-02-18T21:38:45.090Z,9.77
2023-02-18T21:41:12.635Z,9.77
2023-02-18T21:43:39.341Z,9.76
2023-02-18T21:46:13.588Z,9.77
2023-02-18T21:48:58.743Z,9.77
2023-02-18T21:51:43.860Z,9.75
2023-02-18T21:54:10.300Z,9.77
2023-02-18T21:56:36.888Z,9.75
2023-02-18T21:59:03.560Z,9.75
2023-02-18T22:01:30.180Z,9.74
2023-02-18T22:03:56.677Z,9.74
2023-02-18T22:06:23.670Z,9.74
2023-02-18T22:08:50.349Z,9.73
2023-02-18T22:11:17.432Z,9.74
2023-02-18T22:13:43.996Z,9.72
2023-02-18T22:16:10.720Z,9.72
2023-02-18T22:18:37.504Z,9.73
2023-02-18T22:21:08.644Z,9.73
2023-02-18T22:23:35.802Z,9.72
2023-02-18T22:26:06.602Z,9.73
2023-02-18T22:28:34.324Z,9.72
2023-02-18T22:31:05.316Z,9.72
2023-02-18T22:33:31.740Z,9.71
2023-02-18T22:36:01.627Z,9.72
2023-02-18T22:38:28.518Z,9.70
2023-02-18T22:40:54.940Z,9.71
2023-02-18T22:43:21.369Z,9.70
2023-02-18T22:45:48.008Z,9.71
2023-02-18T22:48:14.450Z,9.70
2023-02-18T22:50:40.871Z,9.70
2023-02-18T22:53:07.293Z,9.69
2023-02-18T22:55:33.729Z,9.69
2023-02-18T22:58:00.169Z,9.69
2023-02-18T23:00:26.602Z,9.70
2023-02-18T23:02:53.208Z,9.70
2023-02-18T23:05:19.712Z,9.69
2023-02-18T23:07:46.208Z,9.66
2023-02-18T23:10:12.923Z,9.67
2023-02-18T23:12:39.465Z,9.66
2023-02-18T23:15:06.195Z,9.67
2023-02-18T23:17:32.790Z,9.65
2023-02-18T23:19:59.364Z,9.67
2023-02-18T23:22:30.434Z,9.65
2023-02-18T23:24:57.202Z,9.65
2023-02-18T23:27:24.536Z,9.67
2023-02-18T23:29:51.699Z,9.67
2023-02-18T23:32:18.991Z,9.65
2023-02-18T23:34:45.659Z,9.64
2023-02-18T23:37:12.587Z,9.63
2023-02-18T23:39:39.936Z,9.63
2023-02-18T23:42:06.775Z,9.61
2023-02-18T23:44:33.227Z,9.61
2023-02-18T23:47:00.287Z,9.61
2023-02-18T23:49:28.708Z,9.60
2023-02-18T23:51:56.982Z,9.60
2023-02-18T23:54:23.983Z,9.58
2023-02-18T23:56:50.428Z,9.59
2023-02-18T23:59:17.218Z,9.57
